Time;durP1;ratioP1;P1;durP2;ratioP2;P2;SDS_P1;SDS_P2;PMS_P1;PMS_P2;Temp;Humidity;BMP_temperature;BMP_pressure;BME280_temperature;BME280_humidity;BME280_pressure;Samples;Min_cycle;Max_cycle;Signal;HPM_P1;HPM_P2
2022/06/23 00:02:21;;;;;;;5.65;3.22;;;;;;;;;;5029838;28;20488;-58
2022/06/23 00:04:47;;;;;;;4.65;3.17;;;;;;;;;;5013066;28;20117;-57
2022/06/23 00:07:19;;;;;;;4.00;3.20;;;;;;;;;;5029751;28;20087;-58
2022/06/23 00:09:45;;;;;;;6.88;3.13;;;;;;;;;;5025804;28;20085;-59
2022/06/23 00:12:19;;;;;;;8.38;3.40;;;;;;;;;;5028916;28;20067;-59
2022/06/23 00:14:46;;;;;;;9.68;3.58;;;;;;;;;;5025821;28;20112;-57
2022/06/23 00:17:16;;;;;;;7.57;3.67;;;;;;;;;;5030317;28;20039;-58
2022/06/23 00:19:44;;;;;;;6.97;3.33;;;;;;;;;;5025912;28;20026;-57
2022/06/23 00:22:11;;;;;;;7.80;2.90;;;;;;;;;;5026999;28;20104;-58
2022/06/23 00:24:38;;;;;;;8.05;3.75;;;;;;;;;;5029147;28;20468;-57
2022/06/23 00:27:04;;;;;;;6.75;4.35;;;;;;;;;;5028087;28;20045;-57
2022/06/23 00:29:31;;;;;;;6.13;3.50;;;;;;;;;;5029501;28;20029;-57
2022/06/23 00:31:59;;;;;;;7.03;3.50;;;;;;;;;;5028863;28;20022;-56
2022/06/23 00:34:25;;;;;;;3.95;3.38;;;;;;;;;;5029365;28;20495;-56
2022/06/23 00:36:53;;;;;;;6.53;3.70;;;;;;;;;;5030677;28;20029;-57
2022/06/23 00:39:21;;;;;;;8.85;4.13;;;;;;;;;;5031179;28;20045;-57
2022/06/23 00:41:47;;;;;;;7.38;3.97;;;;;;;;;;5022994;28;20029;-57
2022/06/23 00:44:31;;;;;;;7.25;3.53;;;;;;;;;;5027943;28;20091;-58
2022/06/23 00:47:00;;;;;;;6.25;4.00;;;;;;;;;;5029043;28;20110;-58
2022/06/23 00:49:40;;;;;;;7.72;4.00;;;;;;;;;;5029472;28;20034;-57
2022/06/23 00:52:41;;;;;;;7.45;3.83;;;;;;;;;;5030312;28;20029;-57
2022/06/23 00:55:13;;;;;;;7.25;4.10;;;;;;;;;;4968133;28;20037;-57
2022/06/23 00:57:44;;;;;;;10.80;3.72;;;;;;;;;;5020746;28;20041;-57
2022/06/23 01:00:24;;;;;;;5.35;4.00;;;;;;;;;;5032511;28;20117;-57
2022/06/23 01:02:55;;;;;;;9.32;4.30;;;;;;;;;;5034092;28;20035;-60
2022/06/23 01:05:33;;;;;;;10.18;4.40;;;;;;;;;;5032308;28;20033;-60
2022/06/23 01:08:02;;;;;;;8.55;4.00;;;;;;;;;;5031389;28;20037;-60
2022/06/23 01:10:33;;;;;;;6.22;4.43;;;;;;;;;;5025690;28;20136;-59
2022/06/23 01:13:14;;;;;;;9.05;3.97;;;;;;;;;;5017023;28;20026;-60
2022/06/23 01:15:50;;;;;;;7.88;4.32;;;;;;;;;;5033013;28;20056;-60
2022/06/23 01:18:19;;;;;;;7.60;3.75;;;;;;;;;;5021768;28;20447;-60
2022/06/23 01:20:51;;;;;;;7.45;4.25;;;;;;;;;;5032693;28;20029;-60
2022/06/23 01:23:24;;;;;;;6.28;3.97;;;;;;;;;;5032997;28;20037;-60
2022/06/23 01:25:50;;;;;;;;;;;;;;;;;;5021814;28;20144;-60
2022/06/23 01:28:21;;;;;;;8.45;4.80;;;;;;;;;;5011001;28;20004;-58
2022/06/23 01:30:50;;;;;;;10.20;3.97;;;;;;;;;;5012456;28;20036;-59
2022/06/23 01:33:23;;;;;;;9.02;4.05;;;;;;;;;;5005095;28;20034;-60
2022/06/23 01:36:02;;;;;;;7.70;5.07;;;;;;;;;;5010418;28;20033;-59
2022/06/23 01:38:34;;;;;;;4.88;3.85;;;;;;;;;;5012654;28;20041;-60
2022/06/23 01:41:05;;;;;;;10.32;4.78;;;;;;;;;;5014150;28;20040;-60
2022/06/23 01:43:40;;;;;;;6.75;4.28;;;;;;;;;;5010746;28;20030;-59
2022/06/23 01:46:11;;;;;;;7.03;4.03;;;;;;;;;;5012363;28;20032;-60
2022/06/23 01:48:52;;;;;;;8.15;4.30;;;;;;;;;;5013263;28;20018;-59
2022/06/23 01:51:28;;;;;;;7.68;3.80;;;;;;;;;;5013975;28;20563;-59
2022/06/23 01:53:55;;;;;;;6.13;3.53;;;;;;;;;;5012679;28;20501;-60
2022/06/23 01:56:33;;;;;;;7.57;4.68;;;;;;;;;;5012177;28;20065;-60
2022/06/23 01:59:05;;;;;;;7.82;3.95;;;;;;;;;;5013152;28;20034;-59
2022/06/23 02:01:35;;;;;;;7.72;4.32;;;;;;;;;;5011987;28;20026;-60
2022/06/23 02:04:07;;;;;;;7.45;4.07;;;;;;;;;;5001753;28;20040;-61
2022/06/23 02:06:46;;;;;;;5.82;4.28;;;;;;;;;;5011488;28;20026;-60
2022/06/23 02:09:21;;;;;;;7.45;4.65;;;;;;;;;;5013371;28;20053;-61
2022/06/23 02:11:49;;;;;;;8.48;4.82;;;;;;;;;;5010227;28;20033;-60
2022/06/23 02:14:21;;;;;;;6.85;4.50;;;;;;;;;;5016335;28;20393;-60
2022/06/23 02:16:52;;;;;;;8.00;5.15;;;;;;;;;;5011291;28;20580;-59
2022/06/23 02:19:28;;;;;;;8.00;4.70;;;;;;;;;;5012690;28;20036;-59
2022/06/23 02:22:00;;;;;;;6.93;4.65;;;;;;;;;;5012129;28;20485;-59
2022/06/23 02:24:30;;;;;;;8.35;5.07;;;;;;;;;;5013240;28;20105;-60
2022/06/23 02:27:19;;;;;;;7.40;4.45;;;;;;;;;;5029414;28;20512;-58
2022/06/23 02:29:48;;;;;;;6.53;4.50;;;;;;;;;;5016864;28;20452;-60
2022/06/23 02:32:20;;;;;;;10.50;5.63;;;;;;;;;;5029855;28;20041;-59
2022/06/23 02:35:08;;;;;;;10.70;5.50;;;;;;;;;;5031298;28;20028;-59
2022/06/23 02:37:53;;;;;;;7.13;4.20;;;;;;;;;;5032951;28;20037;-60
2022/06/23 02:40:34;;;;;;;7.25;5.22;;;;;;;;;;5030819;28;20063;-59
2022/06/23 02:43:00;;;;;;;9.13;5.00;;;;;;;;;;5023268;28;20040;-60
2022/06/23 02:45:45;;;;;;;7.95;4.82;;;;;;;;;;5030540;28;20025;-59
2022/06/23 02:48:29;;;;;;;8.80;5.10;;;;;;;;;;5032600;28;20030;-59
2022/06/23 02:50:58;;;;;;;8.48;4.88;;;;;;;;;;5022799;28;20385;-59
2022/06/23 02:53:43;;;;;;;6.38;4.93;;;;;;;;;;5029661;28;20156;-59
2022/06/23 02:56:09;;;;;;;7.53;5.10;;;;;;;;;;5031182;28;20034;-59
2022/06/23 02:58:41;;;;;;;8.65;4.82;;;;;;;;;;5029247;28;20041;-59
2022/06/23 03:01:13;;;;;;;7.78;4.80;;;;;;;;;;5031185;28;20440;-59
2022/06/23 03:03:49;;;;;;;6.45;4.82;;;;;;;;;;5031425;28;20485;-59
2022/06/23 03:06:24;;;;;;;12.45;5.78;;;;;;;;;;5030894;28;20483;-59
2022/06/23 03:09:00;;;;;;;7.35;4.90;;;;;;;;;;5022568;28;20076;-59
2022/06/23 03:14:20;;;;;;;7.97;5.25;;;;;;;;;;5031430;28;20093;-59
2022/06/23 03:16:50;;;;;;;8.85;5.28;;;;;;;;;;5006355;28;20560;-60
2022/06/23 03:19:22;;;;;;;6.93;4.80;;;;;;;;;;5024677;28;20035;-58
2022/06/23 03:21:55;;;;;;;9.02;5.70;;;;;;;;;;5028262;28;20705;-59
2022/06/23 03:24:21;;;;;;;9.63;5.50;;;;;;;;;;5030501;28;20029;-58
2022/06/23 03:26:51;;;;;;;9.23;5.50;;;;;;;;;;5031178;28;20095;-59
2022/06/23 03:29:28;;;;;;;10.57;5.25;;;;;;;;;;5029554;28;20469;-59
2022/06/23 03:31:57;;;;;;;8.38;5.10;;;;;;;;;;5027477;28;20061;-58
2022/06/23 03:34:42;;;;;;;8.27;5.03;;;;;;;;;;5029001;28;20029;-58
2022/06/23 03:37:13;;;;;;;10.15;5.55;;;;;;;;;;5024810;28;20033;-59
2022/06/23 03:42:36;;;;;;;7.55;5.35;;;;;;;;;;5027212;28;20036;-59
2022/06/23 03:45:11;;;;;;;6.20;4.68;;;;;;;;;;5027810;28;20108;-59
2022/06/23 03:47:45;;;;;;;8.93;5.57;;;;;;;;;;5029421;28;20519;-59
2022/06/23 03:50:29;;;;;;;6.68;4.90;;;;;;;;;;5030486;28;20033;-60
2022/06/23 03:52:57;;;;;;;8.10;5.55;;;;;;;;;;5027963;28;20802;-60
2022/06/23 03:55:25;;;;;;;8.38;5.20;;;;;;;;;;5030015;28;20029;-59
2022/06/23 03:57:55;;;;;;;9.40;4.97;;;;;;;;;;5022920;28;20021;-59
2022/06/23 04:00:22;;;;;;;8.27;4.95;;;;;;;;;;5028918;28;20488;-59
2022/06/23 04:02:51;;;;;;;6.53;4.97;;;;;;;;;;5029140;28;20508;-59
2022/06/23 04:05:23;;;;;;;5.38;4.45;;;;;;;;;;5006775;28;20120;-57
2022/06/23 04:07:52;;;;;;;9.52;5.68;;;;;;;;;;5024880;28;20064;-57
2022/06/23 04:10:28;;;;;;;6.85;5.25;;;;;;;;;;5025310;28;20108;-60
2022/06/23 04:12:57;;;;;;;10.23;5.20;;;;;;;;;;5020185;28;20369;-59
2022/06/23 04:15:26;;;;;;;7.80;4.97;;;;;;;;;;5026815;28;20036;-59
2022/06/23 04:17:54;;;;;;;13.15;5.43;;;;;;;;;;5029864;28;20038;-59
2022/06/23 04:20:32;;;;;;;7.57;5.47;;;;;;;;;;5029474;28;20064;-60
2022/06/23 04:23:02;;;;;;;7.10;5.25;;;;;;;;;;5025609;28;20492;-60
2022/06/23 04:25:49;;;;;;;7.95;5.38;;;;;;;;;;5020040;28;20057;-58
2022/06/23 04:28:27;;;;;;;9.50;5.45;;;;;;;;;;5026325;28;20452;-60
2022/06/23 04:30:54;;;;;;;8.43;5.25;;;;;;;;;;5027344;28;20029;-59
2022/06/23 04:33:22;;;;;;;10.40;5.72;;;;;;;;;;5011547;28;20025;-59
2022/06/23 04:35:52;;;;;;;10.25;5.75;;;;;;;;;;5025483;28;20033;-59
2022/06/23 04:38:22;;;;;;;7.30;5.15;;;;;;;;;;5023956;28;20053;-59
2022/06/23 04:40:51;;;;;;;5.38;4.47;;;;;;;;;;5026800;28;20041;-61
2022/06/23 04:43:23;;;;;;;8.73;5.13;;;;;;;;;;5027200;28;20115;-58
2022/06/23 04:45:53;;;;;;;7.78;4.93;;;;;;;;;;5029425;28;20039;-59
2022/06/23 04:48:28;;;;;;;6.38;4.78;;;;;;;;;;5026607;28;20076;-59
2022/06/23 04:50:57;;;;;;;5.63;4.93;;;;;;;;;;5027499;28;20032;-60
2022/06/23 04:53:31;;;;;;;7.38;5.32;;;;;;;;;;5009686;28;20025;-59
2022/06/23 04:56:03;;;;;;;7.50;5.07;;;;;;;;;;5031654;28;20104;-59
2022/06/23 04:58:30;;;;;;;11.85;5.93;;;;;;;;;;5026031;28;20117;-59
2022/06/23 05:00:56;;;;;;;7.57;4.97;;;;;;;;;;5027186;28;20133;-60
2022/06/23 05:03:28;;;;;;;8.00;5.60;;;;;;;;;;5030035;28;20025;-58
2022/06/23 05:06:10;;;;;;;11.02;5.25;;;;;;;;;;5029379;28;20037;-60
2022/06/23 05:08:39;;;;;;;6.47;4.93;;;;;;;;;;5006309;28;20087;-59
2022/06/23 05:11:12;;;;;;;8.57;5.47;;;;;;;;;;5033208;28;20025;-60
2022/06/23 05:13:44;;;;;;;10.80;5.22;;;;;;;;;;5030781;28;20033;-59
2022/06/23 05:16:13;;;;;;;8.57;5.15;;;;;;;;;;5021505;28;20035;-60
2022/06/23 05:18:41;;;;;;;9.50;5.20;;;;;;;;;;5026962;28;20029;-60
2022/06/23 05:21:13;;;;;;;8.45;5.60;;;;;;;;;;5026946;28;20585;-60
2022/06/23 05:23:54;;;;;;;8.98;5.72;;;;;;;;;;5028063;28;20128;-61
2022/06/23 05:26:25;;;;;;;9.52;4.75;;;;;;;;;;5029171;28;20116;-61
2022/06/23 05:28:53;;;;;;;7.25;4.50;;;;;;;;;;5029086;28;20486;-60
2022/06/23 05:31:20;;;;;;;7.03;4.85;;;;;;;;;;5027351;28;20025;-60
2022/06/23 05:33:49;;;;;;;8.50;4.32;;;;;;;;;;5028434;28;20029;-59
2022/06/23 05:36:29;;;;;;;10.52;4.60;;;;;;;;;;5021690;28;20029;-60
2022/06/23 05:38:58;;;;;;;6.68;4.05;;;;;;;;;;5028885;28;20520;-60
2022/06/23 05:41:30;;;;;;;8.50;4.90;;;;;;;;;;5029022;28;20033;-59
2022/06/23 05:43:58;;;;;;;7.90;4.33;;;;;;;;;;5031360;28;20876;-61
2022/06/23 05:46:25;;;;;;;5.50;3.78;;;;;;;;;;5015536;28;20033;-59
2022/06/23 05:48:56;;;;;;;10.00;4.07;;;;;;;;;;5031630;28;20057;-60
2022/06/23 05:51:27;;;;;;;9.82;3.90;;;;;;;;;;5029299;28;20033;-60
2022/06/23 05:54:01;;;;;;;6.38;4.13;;;;;;;;;;5029806;28;20033;-58
2022/06/23 05:56:31;;;;;;;6.88;3.40;;;;;;;;;;5033102;28;20112;-60
2022/06/23 05:59:00;;;;;;;8.10;4.10;;;;;;;;;;5033215;28;20049;-59
2022/06/23 06:01:31;;;;;;;9.68;3.85;;;;;;;;;;5031064;28;20029;-60
2022/06/23 06:04:03;;;;;;;6.60;3.60;;;;;;;;;;5032061;28;20075;-59
2022/06/23 06:06:29;;;;;;;6.72;3.13;;;;;;;;;;5031617;28;20128;-58
2022/06/23 06:11:48;;;;;;;7.72;3.47;;;;;;;;;;5030425;28;20088;-59
2022/06/23 06:14:16;;;;;;;5.95;2.72;;;;;;;;;;5030389;28;20033;-60
2022/06/23 06:16:42;;;;;;;7.32;3.58;;;;;;;;;;5031718;28;20046;-60
2022/06/23 06:19:13;;;;;;;6.05;3.00;;;;;;;;;;5014801;28;20424;-60
2022/06/23 06:21:39;;;;;;;6.55;4.13;;;;;;;;;;5030952;28;20026;-60
2022/06/23 06:24:25;;;;;;;6.88;3.25;;;;;;;;;;5026353;28;20080;-60
2022/06/23 06:26:52;;;;;;;4.40;2.70;;;;;;;;;;5024448;28;20423;-59
2022/06/23 06:29:23;;;;;;;5.70;3.42;;;;;;;;;;5034875;28;20030;-59
2022/06/23 06:31:52;;;;;;;5.43;3.17;;;;;;;;;;5032202;28;20133;-60
2022/06/23 06:34:29;;;;;;;6.88;3.20;;;;;;;;;;5031729;28;20112;-60
2022/06/23 06:36:55;;;;;;;4.38;2.40;;;;;;;;;;5032165;28;20451;-59
2022/06/23 06:39:30;;;;;;;7.57;3.17;;;;;;;;;;5030117;28;20032;-59
2022/06/23 06:42:13;;;;;;;6.53;2.92;;;;;;;;;;5030087;28;20029;-60
2022/06/23 06:44:43;;;;;;;4.85;2.70;;;;;;;;;;5026681;28;20484;-61
2022/06/23 06:47:17;;;;;;;6.72;2.67;;;;;;;;;;5029844;28;20030;-59
2022/06/23 06:49:43;;;;;;;5.63;2.85;;;;;;;;;;5030981;28;20084;-57
2022/06/23 06:52:10;;;;;;;6.95;2.78;;;;;;;;;;5030574;28;20029;-60
2022/06/23 06:54:42;;;;;;;6.95;2.50;;;;;;;;;;5031862;28;20033;-60
2022/06/23 06:57:14;;;;;;;3.50;1.98;;;;;;;;;;5031116;28;20037;-60
2022/06/23 06:59:46;;;;;;;7.60;2.83;;;;;;;;;;5030383;28;20136;-60
2022/06/23 07:02:14;;;;;;;4.40;2.42;;;;;;;;;;5031101;28;20043;-60
2022/06/23 07:04:49;;;;;;;7.28;3.00;;;;;;;;;;5030558;28;20116;-60
2022/06/23 07:07:26;;;;;;;5.70;2.70;;;;;;;;;;5029003;28;20037;-60
2022/06/23 07:09:57;;;;;;;5.07;2.53;;;;;;;;;;5029079;28;20031;-60
2022/06/23 07:12:27;;;;;;;8.43;2.63;;;;;;;;;;5030123;28;20656;-61
2022/06/23 07:15:11;;;;;;;6.82;2.33;;;;;;;;;;5029912;28;20026;-60
2022/06/23 07:17:53;;;;;;;5.07;2.40;;;;;;;;;;5028676;28;20037;-61
2022/06/23 07:20:21;;;;;;;9.63;2.20;;;;;;;;;;5029742;28;20552;-61
2022/06/23 07:23:08;;;;;;;4.18;2.30;;;;;;;;;;5031588;28;20041;-59
2022/06/23 07:25:36;;;;;;;5.47;2.28;;;;;;;;;;4989396;28;20561;-61
2022/06/23 07:28:15;;;;;;;7.07;2.15;;;;;;;;;;5044077;28;20115;-61
2022/06/23 07:30:43;;;;;;;5.40;2.63;;;;;;;;;;5025598;28;20067;-61
2022/06/23 07:33:18;;;;;;;4.85;2.08;;;;;;;;;;5030972;28;20242;-61
2022/06/23 07:35:52;;;;;;;5.97;2.28;;;;;;;;;;5028036;28;20029;-60
2022/06/23 07:38:38;;;;;;;12.02;2.55;;;;;;;;;;5032111;28;20026;-60
2022/06/23 07:41:15;;;;;;;6.13;2.38;;;;;;;;;;5030189;28;20018;-60
2022/06/23 07:43:47;;;;;;;7.05;2.47;;;;;;;;;;5032036;28;20026;-60
2022/06/23 07:46:14;;;;;;;3.88;1.85;;;;;;;;;;5019570;28;20039;-62
2022/06/23 07:48:40;;;;;;;8.18;2.20;;;;;;;;;;5030422;28;20038;-61
2022/06/23 07:51:07;;;;;;;3.28;2.08;;;;;;;;;;5031185;28;20040;-61
2022/06/23 07:53:36;;;;;;;3.65;1.73;;;;;;;;;;5031688;28;20026;-62
2022/06/23 07:56:04;;;;;;;4.28;1.92;;;;;;;;;;5031891;28;20479;-62
2022/06/23 07:58:32;;;;;;;4.43;2.10;;;;;;;;;;5031546;28;20112;-62
2022/06/23 08:01:01;;;;;;;7.40;2.17;;;;;;;;;;5031544;28;20057;-61
2022/06/23 08:03:34;;;;;;;4.47;1.80;;;;;;;;;;5030307;28;20059;-60
2022/06/23 08:06:00;;;;;;;;;;;;;;;;;;5026505;28;20488;-62
2022/06/23 08:08:29;;;;;;;5.03;1.95;;;;;;;;;;5027390;28;19956;-61
2022/06/23 08:13:44;;;;;;;8.45;2.03;;;;;;;;;;5029494;28;20048;-61
2022/06/23 08:19:07;;;;;;;2.55;1.85;;;;;;;;;;5028829;28;20068;-61
2022/06/23 08:21:36;;;;;;;4.25;1.80;;;;;;;;;;5030414;28;20025;-61
2022/06/23 08:24:11;;;;;;;11.18;2.10;;;;;;;;;;5028852;28;20467;-61
2022/06/23 08:26:38;;;;;;;8.10;1.88;;;;;;;;;;5027806;28;20100;-61
2022/06/23 08:29:08;;;;;;;6.07;1.52;;;;;;;;;;5028399;28;20535;-61
2022/06/23 08:31:33;;;;;;;4.97;2.00;;;;;;;;;;5024858;28;20022;-61
2022/06/23 08:34:01;;;;;;;6.20;1.90;;;;;;;;;;5028668;28;20501;-59
2022/06/23 08:36:33;;;;;;;2.72;1.40;;;;;;;;;;5029092;28;20108;-60
2022/06/23 08:39:04;;;;;;;5.50;1.67;;;;;;;;;;5030807;28;20029;-62
2022/06/23 08:41:36;;;;;;;6.80;2.00;;;;;;;;;;5030644;28;20037;-61
2022/06/23 08:44:07;;;;;;;4.90;1.38;;;;;;;;;;5030939;28;20536;-61
2022/06/23 08:46:49;;;;;;;10.85;1.90;;;;;;;;;;5011382;28;20032;-61
2022/06/23 08:49:15;;;;;;;5.85;1.92;;;;;;;;;;5030370;28;20061;-61
2022/06/23 08:51:48;;;;;;;3.60;1.80;;;;;;;;;;5030546;28;20383;-60
2022/06/23 08:54:14;;;;;;;;;;;;;;;;;;5022402;28;20473;-60
2022/06/23 08:56:45;;;;;;;5.38;1.65;;;;;;;;;;5018535;28;19964;-60
2022/06/23 08:59:43;;;;;;;5.95;2.30;;;;;;;;;;5030626;28;20067;-61
2022/06/23 09:02:21;;;;;;;3.28;1.50;;;;;;;;;;4976953;28;20085;-61
2022/06/23 09:05:00;;;;;;;4.85;1.75;;;;;;;;;;5002953;28;20069;-60
2022/06/23 09:07:43;;;;;;;8.43;1.90;;;;;;;;;;5016358;28;20046;-61
2022/06/23 09:10:12;;;;;;;5.82;1.92;;;;;;;;;;5026288;28;20451;-60
2022/06/23 09:12:46;;;;;;;6.85;1.75;;;;;;;;;;5023752;28;20474;-60
2022/06/23 09:15:12;;;;;;;4.88;1.70;;;;;;;;;;5027535;28;20029;-61
2022/06/23 09:17:44;;;;;;;5.00;1.70;;;;;;;;;;5029608;28;20025;-61
2022/06/23 09:20:21;;;;;;;4.57;1.60;;;;;;;;;;5026609;28;20029;-62
2022/06/23 09:23:03;;;;;;;2.03;0.98;;;;;;;;;;5040547;28;20029;-61
2022/06/23 09:25:48;;;;;;;3.15;1.30;;;;;;;;;;5028702;28;20075;-61
2022/06/23 09:28:16;;;;;;;6.47;1.35;;;;;;;;;;5033829;28;20107;-62
2022/06/23 09:30:53;;;;;;;2.75;1.13;;;;;;;;;;5032629;28;20117;-61
2022/06/23 09:33:22;;;;;;;3.15;1.23;;;;;;;;;;5033423;28;20064;-61
2022/06/23 09:36:02;;;;;;;5.15;1.48;;;;;;;;;;5031411;28;20021;-61
2022/06/23 09:38:51;;;;;;;5.90;1.30;;;;;;;;;;5032744;28;20033;-61
2022/06/23 09:41:29;;;;;;;2.72;1.13;;;;;;;;;;5033417;28;20104;-61
2022/06/23 09:44:10;;;;;;;4.38;1.15;;;;;;;;;;5032417;28;20026;-60
2022/06/23 09:46:45;;;;;;;2.20;1.10;;;;;;;;;;5010720;28;20047;-61
2022/06/23 09:49:22;;;;;;;6.32;1.30;;;;;;;;;;5034214;28;20551;-61
2022/06/23 09:51:57;;;;;;;4.13;1.05;;;;;;;;;;5032023;28;20029;-61
2022/06/23 09:54:36;;;;;;;1.70;1.20;;;;;;;;;;5030682;28;20117;-61
2022/06/23 09:57:20;;;;;;;5.82;1.55;;;;;;;;;;5033063;28;20494;-61
2022/06/23 10:00:05;;;;;;;4.00;1.20;;;;;;;;;;5032488;28;20041;-61
2022/06/23 10:02:31;;;;;;;5.50;1.80;;;;;;;;;;5033486;28;20025;-62
2022/06/23 10:05:15;;;;;;;4.05;1.35;;;;;;;;;;5032061;28;20036;-61
2022/06/23 10:08:00;;;;;;;5.65;1.45;;;;;;;;;;5033203;28;20079;-61
2022/06/23 10:10:45;;;;;;;2.67;1.40;;;;;;;;;;5031579;28;20060;-61
2022/06/23 10:13:20;;;;;;;4.35;1.23;;;;;;;;;;5032608;28;20030;-61
2022/06/23 10:15:51;;;;;;;4.05;1.42;;;;;;;;;;5022653;28;20026;-61
2022/06/23 10:18:28;;;;;;;3.25;1.00;;;;;;;;;;5031443;28;21095;-61
2022/06/23 10:21:13;;;;;;;2.05;1.10;;;;;;;;;;5026673;28;20030;-61
2022/06/23 10:23:55;;;;;;;3.08;1.20;;;;;;;;;;5027975;28;20025;-61
2022/06/23 10:26:37;;;;;;;2.42;1.40;;;;;;;;;;5031921;28;20053;-61
2022/06/23 10:29:20;;;;;;;5.72;1.35;;;;;;;;;;5014861;28;20033;-61
2022/06/23 10:31:59;;;;;;;5.65;1.13;;;;;;;;;;5032147;28;20059;-61
2022/06/23 10:34:38;;;;;;;4.22;1.15;;;;;;;;;;5033022;28;20036;-62
2022/06/23 10:37:14;;;;;;;4.10;1.60;;;;;;;;;;5038831;28;20032;-61
2022/06/23 10:39:49;;;;;;;2.20;1.10;;;;;;;;;;5034691;28;20044;-62
2022/06/23 10:42:34;;;;;;;4.00;1.40;;;;;;;;;;5014608;28;20033;-62
2022/06/23 10:45:06;;;;;;;2.40;1.40;;;;;;;;;;5032882;28;20033;-59
2022/06/23 10:47:32;;;;;;;3.08;1.48;;;;;;;;;;5033120;28;20053;-61
2022/06/23 10:50:07;;;;;;;4.10;1.15;;;;;;;;;;5034856;28;20025;-62
2022/06/23 10:52:39;;;;;;;3.78;1.30;;;;;;;;;;5032268;28;20026;-61
2022/06/23 10:55:28;;;;;;;5.05;1.50;;;;;;;;;;5027912;28;20056;-61
2022/06/23 10:58:00;;;;;;;3.78;1.52;;;;;;;;;;5033787;28;20037;-62
2022/06/23 11:00:33;;;;;;;2.77;1.23;;;;;;;;;;5031875;28;20029;-62
2022/06/23 11:03:10;;;;;;;1.60;0.93;;;;;;;;;;5036533;28;20069;-62
2022/06/23 11:05:54;;;;;;;4.22;1.20;;;;;;;;;;5031721;28;20029;-60
2022/06/23 11:08:29;;;;;;;4.28;1.52;;;;;;;;;;5030933;28;20041;-62
2022/06/23 11:11:13;;;;;;;3.33;1.48;;;;;;;;;;5031339;28;20029;-62
2022/06/23 11:14:00;;;;;;;4.53;1.70;;;;;;;;;;5031727;28;20112;-62
2022/06/23 11:16:44;;;;;;;2.08;0.80;;;;;;;;;;4979781;28;20140;-61
2022/06/23 11:19:16;;;;;;;2.38;0.75;;;;;;;;;;5029438;28;20403;-60
2022/06/23 11:21:59;;;;;;;1.88;1.08;;;;;;;;;;5030896;28;20400;-61
2022/06/23 11:24:35;;;;;;;3.83;1.30;;;;;;;;;;5024441;28;20465;-62
2022/06/23 11:27:17;;;;;;;2.97;1.00;;;;;;;;;;5029741;28;20474;-62
2022/06/23 11:29:58;;;;;;;3.50;1.13;;;;;;;;;;5029878;28;20029;-61
2022/06/23 11:32:43;;;;;;;2.03;0.93;;;;;;;;;;5029484;28;20025;-61
2022/06/23 11:35:32;;;;;;;2.00;1.13;;;;;;;;;;5029352;28;20105;-62
2022/06/23 11:37:58;;;;;;;4.28;1.10;;;;;;;;;;5022818;28;20586;-61
2022/06/23 11:40:30;;;;;;;3.58;1.20;;;;;;;;;;5030753;28;20026;-61
2022/06/23 11:42:56;;;;;;;2.55;1.10;;;;;;;;;;5029287;28;20029;-62
2022/06/23 11:45:31;;;;;;;5.53;1.20;;;;;;;;;;5027983;28;20026;-62
2022/06/23 11:48:07;;;;;;;3.90;1.00;;;;;;;;;;5031855;28;20021;-62
2022/06/23 11:50:41;;;;;;;2.67;1.00;;;;;;;;;;5031585;28;20093;-62
2022/06/23 11:53:22;;;;;;;2.97;0.98;;;;;;;;;;5031583;28;20543;-61
2022/06/23 11:56:18;;;;;;;1.85;0.93;;;;;;;;;;5031707;28;20089;-62
2022/06/23 11:58:51;;;;;;;2.75;1.10;;;;;;;;;;5007798;28;20056;-63
2022/06/23 12:01:17;;;;;;;;;;;;;;;;;;5031384;28;20049;-63
2022/06/23 12:04:02;;;;;;;3.28;1.13;;;;;;;;;;5031576;28;20264;-62
2022/06/23 12:06:33;;;;;;;4.22;1.20;;;;;;;;;;5024346;28;20076;-61
2022/06/23 12:09:18;;;;;;;4.22;1.30;;;;;;;;;;5031536;28;20099;-62
2022/06/23 12:11:44;;;;;;;2.63;0.95;;;;;;;;;;5031198;28;20025;-62
2022/06/23 12:14:10;;;;;;;3.30;1.20;;;;;;;;;;5029413;28;20018;-63
2022/06/23 12:16:41;;;;;;;1.55;1.00;;;;;;;;;;5031671;28;20048;-62
2022/06/23 12:19:11;;;;;;;3.22;1.23;;;;;;;;;;5031218;28;20039;-63
2022/06/23 12:21:57;;;;;;;3.08;1.10;;;;;;;;;;5030459;28;20569;-61
2022/06/23 12:24:26;;;;;;;2.03;1.10;;;;;;;;;;5014597;28;20382;-61
2022/06/23 12:27:06;;;;;;;1.67;0.82;;;;;;;;;;5025433;28;20037;-62
2022/06/23 12:29:40;;;;;;;2.72;1.20;;;;;;;;;;5031275;28;20028;-61
2022/06/23 12:32:12;;;;;;;2.83;1.02;;;;;;;;;;5030944;28;20053;-62
2022/06/23 12:34:58;;;;;;;5.53;1.33;;;;;;;;;;5031149;28;20029;-62
2022/06/23 12:37:34;;;;;;;4.60;1.45;;;;;;;;;;5018249;28;20026;-62
2022/06/23 12:40:03;;;;;;;2.40;1.20;;;;;;;;;;5031350;28;20087;-62
2022/06/23 12:42:35;;;;;;;6.90;1.10;;;;;;;;;;5047573;28;20432;-63
2022/06/23 12:45:16;;;;;;;2.25;1.15;;;;;;;;;;5031063;28;20030;-62
2022/06/23 12:47:55;;;;;;;3.65;0.90;;;;;;;;;;5013312;28;20033;-62
2022/06/23 12:50:31;;;;;;;2.45;1.02;;;;;;;;;;5030579;28;20038;-63
2022/06/23 12:53:08;;;;;;;3.60;1.50;;;;;;;;;;5030380;28;20072;-61
2022/06/23 12:55:38;;;;;;;1.90;1.20;;;;;;;;;;5030880;28;20353;-60
2022/06/23 12:58:10;;;;;;;1.25;0.90;;;;;;;;;;5032842;28;20044;-61
2022/06/23 13:00:43;;;;;;;5.25;1.05;;;;;;;;;;5028919;28;20173;-60
2022/06/23 13:03:09;;;;;;;;;;;;;;;;;;5031453;28;20491;-60
2022/06/23 13:05:38;;;;;;;3.70;1.20;;;;;;;;;;5028785;28;19996;-60
2022/06/23 13:08:07;;;;;;;2.33;1.02;;;;;;;;;;5028393;28;20498;-60
2022/06/23 13:10:36;;;;;;;2.10;0.93;;;;;;;;;;5037372;28;20022;-60
2022/06/23 13:13:22;;;;;;;3.40;1.10;;;;;;;;;;5030945;28;20554;-60
2022/06/23 13:15:53;;;;;;;3.15;1.02;;;;;;;;;;5030830;28;20025;-61
2022/06/23 13:18:52;;;;;;;2.42;1.08;;;;;;;;;;5030808;28;20038;-61
2022/06/23 13:21:21;;;;;;;2.28;0.98;;;;;;;;;;4976209;28;20095;-61
2022/06/23 13:23:52;;;;;;;1.83;0.73;;;;;;;;;;5029681;28;20116;-60
2022/06/23 13:26:21;;;;;;;0.90;0.60;;;;;;;;;;5028928;28;20634;-60
2022/06/23 13:28:54;;;;;;;3.00;0.95;;;;;;;;;;5030300;28;20068;-61
2022/06/23 13:31:22;;;;;;;3.03;1.35;;;;;;;;;;5030235;28;20100;-62
2022/06/23 13:33:58;;;;;;;4.13;0.93;;;;;;;;;;5030605;28;20049;-61
2022/06/23 13:36:29;;;;;;;3.05;0.95;;;;;;;;;;5030406;28;20480;-62
2022/06/23 13:38:59;;;;;;;3.38;1.00;;;;;;;;;;5030130;28;20492;-61
2022/06/23 13:41:40;;;;;;;6.35;0.80;;;;;;;;;;5027096;28;20033;-61
2022/06/23 13:44:13;;;;;;;2.25;0.95;;;;;;;;;;5029600;28;20034;-61
2022/06/23 13:46:41;;;;;;;1.92;0.80;;;;;;;;;;5026382;28;20034;-61
2022/06/23 13:49:07;;;;;;;1.30;0.70;;;;;;;;;;5023978;28;20033;-61
2022/06/23 13:51:41;;;;;;;1.38;0.57;;;;;;;;;;5027566;28;20033;-59
2022/06/23 13:54:10;;;;;;;1.75;0.70;;;;;;;;;;5027919;28;20042;-61
2022/06/23 13:56:36;;;;;;;1.70;0.77;;;;;;;;;;5029279;28;20067;-61
2022/06/23 13:59:20;;;;;;;1.70;0.60;;;;;;;;;;5027544;28;20642;-61
2022/06/23 14:01:53;;;;;;;2.22;0.60;;;;;;;;;;5024604;28;20545;-61
2022/06/23 14:04:34;;;;;;;0.80;0.40;;;;;;;;;;5025987;28;21111;-60
2022/06/23 14:07:04;;;;;;;2.65;0.68;;;;;;;;;;5031014;28;20412;-61
2022/06/23 14:09:42;;;;;;;3.95;1.00;;;;;;;;;;5028018;28;20028;-61
2022/06/23 14:12:16;;;;;;;3.67;0.95;;;;;;;;;;5032796;28;20565;-61
2022/06/23 14:14:47;;;;;;;1.23;0.40;;;;;;;;;;5031635;28;20119;-61
2022/06/23 14:17:31;;;;;;;1.23;0.60;;;;;;;;;;5032201;28;20068;-62
2022/06/23 14:20:06;;;;;;;1.50;0.40;;;;;;;;;;5028389;28;20037;-61
2022/06/23 14:22:40;;;;;;;2.47;0.57;;;;;;;;;;5030535;28;20105;-60
2022/06/23 14:25:20;;;;;;;1.25;0.50;;;;;;;;;;5024803;28;20064;-59
2022/06/23 14:27:50;;;;;;;2.85;0.73;;;;;;;;;;5027656;28;20606;-62
2022/06/23 14:30:22;;;;;;;1.52;0.40;;;;;;;;;;5021835;28;20035;-62
2022/06/23 14:32:48;;;;;;;;;;;;;;;;;;5023770;28;20160;-61
2022/06/23 14:35:14;;;;;;;0.73;0.30;;;;;;;;;;5024716;28;20323;-61
2022/06/23 14:37:43;;;;;;;2.63;0.50;;;;;;;;;;5021248;28;20035;-59
2022/06/23 14:40:12;;;;;;;1.77;0.50;;;;;;;;;;5020680;28;20033;-59
2022/06/23 14:42:44;;;;;;;3.80;0.60;;;;;;;;;;5025078;28;20047;-61
2022/06/23 14:45:10;;;;;;;;;;;;;;;;;;5029989;28;20025;-60
2022/06/23 14:47:55;;;;;;;1.00;0.70;;;;;;;;;;5029460;28;19913;-61
2022/06/23 14:50:27;;;;;;;2.25;0.60;;;;;;;;;;5028815;28;20025;-60
2022/06/23 14:53:06;;;;;;;2.10;0.50;;;;;;;;;;5031123;28;20021;-60
2022/06/23 14:55:47;;;;;;;4.28;0.85;;;;;;;;;;5020652;28;20041;-61
2022/06/23 14:58:17;;;;;;;4.43;0.60;;;;;;;;;;5032044;28;20065;-61
2022/06/23 15:00:59;;;;;;;0.95;0.65;;;;;;;;;;5032247;28;20523;-61
2022/06/23 15:03:44;;;;;;;1.65;0.60;;;;;;;;;;5026175;28;20555;-61
2022/06/23 15:06:13;;;;;;;2.38;0.60;;;;;;;;;;5032889;28;20028;-60
2022/06/23 15:08:58;;;;;;;2.03;0.50;;;;;;;;;;5032599;28;20370;-61
2022/06/23 15:11:46;;;;;;;1.65;0.70;;;;;;;;;;5032013;28;20021;-62
2022/06/23 15:14:18;;;;;;;4.18;0.82;;;;;;;;;;5032733;28;20554;-61
2022/06/23 15:17:03;;;;;;;2.95;0.60;;;;;;;;;;5032736;28;20029;-60
2022/06/23 15:19:33;;;;;;;4.53;0.90;;;;;;;;;;5020215;28;20033;-60
2022/06/23 15:25:15;;;;;;;3.70;0.90;;;;;;;;;;5024280;28;20028;-60
2022/06/23 15:27:45;;;;;;;1.55;0.63;;;;;;;;;;5031773;28;20516;-60
2022/06/23 15:30:32;;;;;;;2.03;0.80;;;;;;;;;;5031890;28;20029;-61
2022/06/23 15:33:04;;;;;;;4.40;0.90;;;;;;;;;;5032156;28;20025;-61
2022/06/23 15:35:34;;;;;;;4.30;0.80;;;;;;;;;;5032167;28;20393;-59
2022/06/23 15:38:24;;;;;;;8.68;0.82;;;;;;;;;;5030571;28;20416;-59
2022/06/23 15:40:53;;;;;;;2.58;0.77;;;;;;;;;;5026207;28;20022;-60